Lazy 5 Park, Sparks, Nevada Weather observations

Data are for 10 minute period ending at time listed.
 Day   Time   Solar   Ave.   Ave.  Ave.  Vector  Max.   Baro.   Total    
  of    of     Rad.   Air    Rel.  Wind   Wind   Wind  Press.  Precip.   
Year   Day            Temp.  Hum.  Speed  Dir.   Gust                    
2020   (PST)  Kw/m2    F      %     mph   deg.    mph    mb.     in.     
-------------------------------------------------------------------------
 216    1:10   0.00   60.1    32    1.2   234     3.8   99999.0    0.00 
 216    1:20   0.00   59.7    34    0.0   236     0.0   99999.0    0.00 
 216    1:30   0.00   60.6    31    1.0   229     4.2   99999.0    0.00 
 216    1:40   0.00   58.4    35    2.8    23     6.0   99999.0    0.00 
 216    1:50   0.00   55.9    36    0.8   324     3.8   99999.0    0.00 
 216    2:00   0.00   56.8    34    3.4     6     5.3   99999.0    0.00 
 216    2:10   0.00   55.9    37    1.8   302     4.2   99999.0    0.00 
 216    2:20   0.00   55.9    40    0.1   196     1.7   99999.0    0.00 
 216    2:30   0.00   55.3    38    0.0     1     0.0   99999.0    0.00 
 216    2:40   0.00   55.0    36    0.0   304     0.0   99999.0    0.00 
 216    2:50   0.00   54.0    37    0.0   324     0.0   99999.0    0.00 
 216    3:00   0.00   52.7    42    0.0   281     0.0   99999.0    0.00 
 216    3:10   0.00   53.1    39    0.0   343     0.0   99999.0    0.00 
 216    3:20   0.00   52.2    40    0.0   340     0.0   99999.0    0.00 
 216    3:30   0.00   51.2    44    0.0   336     0.0   99999.0    0.00 
 216    3:40   0.00   51.2    43    0.0   323     0.0   99999.0    0.00 
 216    3:50   0.00   52.7    41    0.0   323     0.0   99999.0    0.00 
 216    4:00   0.00   53.8    39    0.0   323     0.0   99999.0    0.00 
 216    4:10   0.00   53.4    40    0.0   337     0.0   99999.0    0.00 
 216    4:20   0.00   50.3    46    0.0    33     0.0   99999.0    0.00 
 216    4:30   0.00   49.2    48    0.0   327     0.0   99999.0    0.00 
 216    4:40   0.00   51.0    42    0.0   300     0.0   99999.0    0.00 
 216    4:50   0.00   50.2    43    0.0   310     0.0   99999.0    0.00 
 216    5:00   0.00   48.9    46    0.0   339     0.0   99999.0    0.00 
 216    5:10   0.00   48.4    47    0.0    10     0.0   99999.0    0.00 
 216    5:20   0.00   49.8    44    0.0   276     0.0   99999.0    0.00 
 216    5:30   0.01   49.2    46    0.0   273     0.0   99999.0    0.00 
 216    5:40   0.02   48.8    44    0.0   317     0.0   99999.0    0.00 
 216    5:50   0.04   48.5    48    0.0   321     0.0   99999.0    0.00 
 216    6:00   0.07   48.6    50    0.0   321     0.0   99999.0    0.00 
 216    6:10   0.10   50.3    47    0.0   321     0.0   99999.0    0.00 
 216    6:20   0.12   51.9    47    0.0   305     0.0   99999.0    0.00 
 216    6:30   0.13   54.4    46    0.1    20     2.1   99999.0    0.00 
 216    6:40   0.15   55.5    44    0.1   355     2.4   99999.0    0.00 
 216    6:50   0.21   57.2    40    0.0   301     0.0   99999.0    0.00 
 216    7:00   0.25   58.9    39    0.2   184     2.4   99999.0    0.00 
 216    7:10   0.28   61.0    32    3.6   177     5.6   99999.0    0.00 
 216    7:20   0.31   61.8    31    4.5   181     6.3   99999.0    0.00 
 216    7:30   0.34   62.8    29    3.7   172     5.6   99999.0    0.00 
 216    7:40   0.38   63.9    29    3.4   164     5.3   99999.0    0.00 
 216    7:50   0.41   65.4    27    3.1   142     5.3   99999.0    0.00 
 216    8:00   0.45   66.1    27    3.2   175     5.3   99999.0    0.00 
 216    8:10   0.47   66.9    25    2.5   170     4.9   99999.0    0.00 
 216    8:20   0.50   67.7    25    2.0   184     4.2   99999.0    0.00 
 216    8:30   0.53   68.3    26    3.0   180     5.6   99999.0    0.00 
 216    8:40   0.56   69.2    25    2.3   182     4.9   99999.0    0.00 
 216    8:50   0.59   70.0    24    2.2   202     4.2   99999.0    0.00 
 216    9:00   0.62   71.1    24    1.3   206     3.5   99999.0    0.00 
 216    9:10   0.65   72.0    24    2.6   191     4.9   99999.0    0.00 
 216    9:20   0.67   73.7    23    2.0   123     4.2   99999.0    0.00 
 216    9:30   0.69   75.0    22    3.2   150     5.6   99999.0    0.00 
 216    9:40   0.71   75.8    23    2.3   127     4.9   99999.0    0.00 
 216    9:50   0.74   77.2    21    2.3    62     6.0   99999.0    0.00 
 216   10:00   0.77   78.0    20    2.4    82     5.3   99999.0    0.00 
 216   10:10   0.79   78.9    20    4.7    43     9.6   99999.0    0.00 
 216   10:20   0.81   79.6    18    3.7    81     9.2   99999.0    0.00 
 216   10:30   0.83   80.0    17    3.8    72     7.1   99999.0    0.00 
 216   10:40   0.84   80.5    17    3.7   112     6.3   99999.0    0.00 
 216   10:50   0.86   81.3    20    4.0   166     8.1   99999.0    0.00 
 216   11:00   0.88   81.1    17    2.6   198     5.6   99999.0    0.00 
 216   11:10   0.89   82.1    15    3.2    12     6.0   99999.0    0.00 
 216   11:20   0.90   82.4    16    3.3   185     7.8   99999.0    0.00 
 216   11:30   0.91   83.7    16    6.2   131    12.4   99999.0    0.00 
 216   11:40   0.92   83.0    16    6.2   181     9.9   99999.0    0.00 
 216   11:50   0.92   83.1    15    2.8   156     9.9   99999.0    0.00 
 216   12:00   0.93   84.2    15    6.0    44    10.3   99999.0    0.00 
 216   12:10   0.93   83.9    14    5.8    18     9.6   99999.0    0.00 
 216   12:20   0.93   84.4    14    6.1    22     9.9   99999.0    0.00 
 216   12:30   0.93   84.7    13    4.6   306     9.6   99999.0    0.00 
 216   12:40   0.93   85.7    13    3.6    62     8.5   99999.0    0.00 
 216   12:50   0.93   86.1    13    6.0    31    12.4   99999.0    0.00 
 216   13:00   0.92   86.2    13    6.2    36    11.4   99999.0    0.00 
 216   13:10   0.92   86.8    13    6.3    22    10.3   99999.0    0.00 
 216   13:20   0.91   87.5    13    5.5    21     8.5   99999.0    0.00 
 216   13:30   0.90   87.4    12    4.8    37    10.3   99999.0    0.00 
 216   13:40   0.89   87.7    12    7.4    75    11.0   99999.0    0.00 
 216   13:50   0.87   88.2    12    4.6    73     9.2   99999.0    0.00 
 216   14:00   0.86   89.1    12    4.2   137     9.2   99999.0    0.00 
 216   14:10   0.85   89.0    12    6.9    88    10.6   99999.0    0.00 
 216   14:20   0.82   88.7    12    6.7   130    11.7   99999.0    0.00 
 216   14:30   0.80   88.8    12    6.1   151    11.0   99999.0    0.00 
 216   14:40   0.79   90.1    12    5.1   102     8.1   99999.0    0.00 
 216   14:50   0.76   89.7    11    3.7    50    11.4   99999.0    0.00 
 216   15:00   0.74   89.6    11    4.8    51     9.9   99999.0    0.00 
 216   15:10   0.72   90.3    11    2.7    52     9.2   99999.0    0.00 
 216   15:20   0.70   90.4    12    3.5   274     9.2   99999.0    0.00 
 216   15:30   0.66   90.8    12    4.1   180     8.1   99999.0    0.00 
 216   15:40   0.20   90.4    11    6.5   256    15.6   99999.0    0.00 
 216   15:50   0.58   89.0    12   13.2   221    22.1   99999.0    0.00 
 216   16:00   0.60   88.1    12   15.2   203    19.6   99999.0    0.00 
 216   16:10   0.58   87.6    12   12.4   223    18.1   99999.0    0.00 
 216   16:20   0.55   87.6    12   13.0   205    18.9   99999.0    0.00 
 216   16:30   0.52   87.7    13   12.6   213    19.6   99999.0    0.00 
 216   16:40   0.48   87.2    13   12.7   214    17.4   99999.0    0.00 
 216   16:50   0.45   86.5    13   12.1   222    17.4   99999.0    0.00 
 216   17:00   0.42   86.6    13   13.1   211    17.4   99999.0    0.00 
 216   17:10   0.39   86.2    13   12.0   206    18.1   99999.0    0.00 
 216   17:20   0.35   86.2    13   11.2   217    15.6   99999.0    0.00 
 216   17:30   0.32   85.8    13   13.5   214    18.9   99999.0    0.00 
 216   17:40   0.28   85.3    13   12.0   224    16.4   99999.0    0.00 
 216   17:50   0.25   85.0    14   12.6   220    17.8   99999.0    0.00 
 216   18:00   0.22   84.8    14   11.0   227    15.6   99999.0    0.00 
 216   18:10   0.19   84.4    14   12.2   223    17.4   99999.0    0.00 
 216   18:20   0.14   84.1    14   11.6   223    17.4   99999.0    0.00 
 216   18:30   0.12   83.5    15   12.3   220    18.1   99999.0    0.00 
 216   18:40   0.04   82.9    15   11.9   219    16.7   99999.0    0.00 
 216   18:50   0.06   82.7    15   12.6   220    18.5   99999.0    0.00 
 216   19:00   0.04   82.1    16    8.4   229    14.2   99999.0    0.00 
 216   19:10   0.01   81.6    18    8.5   249    13.5   99999.0    0.00 
 216   19:20   0.01   81.0    20    7.0   262    11.4   99999.0    0.00 
 216   19:30   0.00   80.4    21    7.6   261    11.4   99999.0    0.00 
 216   19:40   0.00   80.1    21    9.6   263    13.1   99999.0    0.00 
 216   19:50   0.00   79.3    22    8.1   267    13.5   99999.0    0.00 
 216   20:00   0.00   78.4    22    7.9   270    12.4   99999.0    0.00 
 216   20:10   0.00   77.8    22    8.8   268    14.6   99999.0    0.00 
 216   20:20   0.00   77.5    22   11.2   265    18.9   99999.0    0.00 
 216   20:30   0.00   77.3    22   11.3   258    17.1   99999.0    0.00 
 216   20:40   0.00   76.9    23    9.9   258    16.0   99999.0    0.00 
 216   20:50   0.00   76.6    23   10.0   253    14.9   99999.0    0.00 
 216   21:00   0.00   76.4    23    9.1   259    14.6   99999.0    0.00 
 216   21:10   0.00   75.6    23    4.6   306     9.9   99999.0    0.00 
 216   21:20   0.00   74.1    25    3.6    14     6.0   99999.0    0.00 
 216   21:30   0.00   73.5    25    4.5     2     7.8   99999.0    0.00 
 216   21:40   0.00   72.0    26    4.2   307     6.3   99999.0    0.00 
 216   21:50   0.00   71.3    27    2.0   269     4.6   99999.0    0.00 
 216   22:00   0.00   72.4    26    4.3   260    10.3   99999.0    0.00 
 216   22:10   0.00   72.7    25    4.8   290     9.6   99999.0    0.00 
 216   22:20   0.00   72.8    25    6.4   296     9.6   99999.0    0.00 
 216   22:30   0.00   73.5    25    6.2   287    11.4   99999.0    0.00 
 216   22:40   0.00   73.0    25    6.7   292    11.0   99999.0    0.00 
 216   22:50   0.00   73.0    25    6.2   269     9.6   99999.0    0.00 
 216   23:00   0.00   73.1    26    5.9   264     9.6   99999.0    0.00 
 216   23:10   0.00   72.1    28    5.2   241    10.3   99999.0    0.00 
 216   23:20   0.00   69.1    31    4.3   195     8.1   99999.0    0.00 
 216   23:30   0.00   66.8    32    0.0    70     1.0   99999.0    0.00 
 216   23:40   0.00   67.0    32    0.4   254     2.1   99999.0    0.00 
 216   23:50   0.00   66.6    32    1.3     8     4.9   99999.0    0.00 
 217    0:00   0.00   64.4    35    0.0    69     0.0   99999.0    0.00 
 217    0:10   0.00   62.1    38    1.0     0     3.5   99999.0    0.00 
 217    0:20   0.00   61.2    41    1.6   355     6.0   99999.0    0.00 
 217    0:30   0.00   60.5    43    0.0   344     0.0   99999.0    0.00 
 217    0:40   0.00   61.0    42    0.4   354     3.1   99999.0    0.00 
 217    0:50   0.00   61.6    41    1.4   338     3.5   99999.0    0.00 
 217    1:00   0.00   60.9    41    3.2   312     4.6   99999.0    0.00 

Return to Lazy 5 Park graphs page.


Western Regional Climate Center,wrcc@dri.edu